Petaluma, CA (94952)

2:05 PM PST on December 25, 2014 (GMT -0800)
Middle Two Rock | Change Station
CLOSE
Current Station
Personal Weather Station
Location: Petaluma, CA
Elevation: 367 ft
Nearby Weather Stations
Active Advisory: Special Statement

Elev 367 ft 38.25 °N, 122.72 °W | Updated 3 minutes ago

Clear
Clear
55.2 °F
Feels Like 55.2 °F
N
5.0
Wind Variable Wind from North
Gusts 15.0 mph

Today
High -- | Low -- °F
--% Chance of Precip.
Yesterday
High -- | Low -- °F
Precip. -- in
7:25 AM 4:56 PM
Waxing Crescent, 19% visible
Pressure 30.07 in
Visibility 10.0 miles
Clouds Clear
Dew Point 37 °F
Humidity 50%
Rainfall 0.00 in
Snow Depth Not available.
UV 2 out of 12
Pollen 4.90 out of 12
Air Quality Not available.
Flu Activity Not available.
METAR KSTS 252153Z 01007KT 10SM CLR 14/02 A3008 RMK AO2 SLP181 T01440017

More Conditions Fewer Conditions

Pressure 30.07 in
Visibility 10.0 miles
Clouds Clear
Dew Point 37 °F
Humidity 50%
Rainfall 0.00 in
Snow Depth Not available.
UV 2 out of 12
Pollen 4.90 out of 12
Air Quality Not available.
Flu Activity Not available.
METAR KSTS 252153Z 01007KT 10SM CLR 14/02 A3008 RMK AO2 SLP181 T01440017

More Conditions Fewer Conditions

10-Day Weather Forecast

Almanac

Astronomy

Dec. 25, 2014 Rise Set
Actual Time
Civil Twilight
Nautical Twilight
Astronomical Twilight
Moon
Length of Visible Light
Length of Day
Tomorrow will be .
, % of the Moon is Illuminated

Today's Extremes

State Highs State Lows

Community

WunderPhotos

Upload Photos

1,780,407 photos uploaded!

WunderBlogs® & News

Nearby

Air Quality

  Air Quality AQ Index Pollutant
Not available.

Snow Depth

Station Depth Elevation

Earthquake Activity

City Distance Mag. Time & Date
Minimum magnitude displayed is 2.5.

Coastal Water Temperatures

Place Temperature

Nearby Weather Stations